sensor_id;sensor_type;location;lat;lon;timestamp;P1;durP1;ratioP1;P2;durP2;ratioP2
47912;SDS011;33676;51.006;17.180;2024-01-11T00:01:15;390.70;;;238.90;;
47912;SDS011;33676;51.006;17.180;2024-01-11T00:03:44;370.90;;;220.90;;
47912;SDS011;33676;51.006;17.180;2024-01-11T00:06:12;379.50;;;209.40;;
47912;SDS011;33676;51.006;17.180;2024-01-11T00:08:41;378.20;;;225.10;;
47912;SDS011;33676;51.006;17.180;2024-01-11T00:11:10;385.10;;;222.10;;
47912;SDS011;33676;51.006;17.180;2024-01-11T00:13:39;384.90;;;226.70;;
47912;SDS011;33676;51.006;17.180;2024-01-11T00:16:07;383.00;;;219.90;;
47912;SDS011;33676;51.006;17.180;2024-01-11T00:18:36;380.00;;;222.00;;
47912;SDS011;33676;51.006;17.180;2024-01-11T00:21:04;377.60;;;225.80;;
47912;SDS011;33676;51.006;17.180;2024-01-11T00:23:33;397.40;;;234.00;;
47912;SDS011;33676;51.006;17.180;2024-01-11T00:26:02;387.60;;;227.70;;
47912;SDS011;33676;51.006;17.180;2024-01-11T00:28:30;378.60;;;223.10;;
47912;SDS011;33676;51.006;17.180;2024-01-11T00:30:59;350.90;;;181.90;;
47912;SDS011;33676;51.006;17.180;2024-01-11T00:33:27;346.60;;;180.40;;
47912;SDS011;33676;51.006;17.180;2024-01-11T00:35:56;344.00;;;182.20;;
47912;SDS011;33676;51.006;17.180;2024-01-11T00:38:24;314.00;;;162.10;;
47912;SDS011;33676;51.006;17.180;2024-01-11T00:40:52;331.10;;;166.50;;
47912;SDS011;33676;51.006;17.180;2024-01-11T00:43:21;343.70;;;177.80;;
47912;SDS011;33676;51.006;17.180;2024-01-11T00:45:49;332.90;;;172.50;;
47912;SDS011;33676;51.006;17.180;2024-01-11T00:48:18;343.20;;;203.50;;
47912;SDS011;33676;51.006;17.180;2024-01-11T00:50:47;350.60;;;203.80;;
47912;SDS011;33676;51.006;17.180;2024-01-11T00:53:15;339.20;;;194.00;;
47912;SDS011;33676;51.006;17.180;2024-01-11T00:55:45;348.50;;;199.70;;
47912;SDS011;33676;51.006;17.180;2024-01-11T00:58:13;336.00;;;202.20;;
47912;SDS011;33676;51.006;17.180;2024-01-11T01:00:42;325.70;;;194.50;;
47912;SDS011;33676;51.006;17.180;2024-01-11T01:03:11;329.70;;;191.10;;
47912;SDS011;33676;51.006;17.180;2024-01-11T01:05:39;318.00;;;191.40;;
47912;SDS011;33676;51.006;17.180;2024-01-11T01:08:08;303.10;;;176.40;;
47912;SDS011;33676;51.006;17.180;2024-01-11T01:10:36;313.50;;;176.30;;
47912;SDS011;33676;51.006;17.180;2024-01-11T01:13:05;308.10;;;175.80;;
47912;SDS011;33676;51.006;17.180;2024-01-11T01:15:33;313.30;;;180.50;;
47912;SDS011;33676;51.006;17.180;2024-01-11T01:18:02;316.40;;;173.20;;
47912;SDS011;33676;51.006;17.180;2024-01-11T01:20:32;290.60;;;168.60;;
47912;SDS011;33676;51.006;17.180;2024-01-11T01:23:01;295.70;;;160.90;;
47912;SDS011;33676;51.006;17.180;2024-01-11T01:25:31;289.80;;;156.20;;
47912;SDS011;33676;51.006;17.180;2024-01-11T01:28:00;299.90;;;167.20;;
47912;SDS011;33676;51.006;17.180;2024-01-11T01:30:29;283.80;;;165.10;;
47912;SDS011;33676;51.006;17.180;2024-01-11T01:32:58;294.10;;;170.00;;
47912;SDS011;33676;51.006;17.180;2024-01-11T01:35:27;291.10;;;166.00;;
47912;SDS011;33676;51.006;17.180;2024-01-11T01:37:55;287.20;;;166.10;;
47912;SDS011;33676;51.006;17.180;2024-01-11T01:40:24;277.30;;;155.70;;
47912;SDS011;33676;51.006;17.180;2024-01-11T01:42:57;280.90;;;154.20;;
47912;SDS011;33676;51.006;17.180;2024-01-11T01:45:28;274.30;;;150.80;;
47912;SDS011;33676;51.006;17.180;2024-01-11T01:47:56;287.50;;;160.80;;
47912;SDS011;33676;51.006;17.180;2024-01-11T01:50:25;281.50;;;158.90;;
47912;SDS011;33676;51.006;17.180;2024-01-11T01:52:55;291.70;;;165.70;;
47912;SDS011;33676;51.006;17.180;2024-01-11T01:55:24;285.20;;;166.90;;
47912;SDS011;33676;51.006;17.180;2024-01-11T01:57:54;291.80;;;164.70;;
47912;SDS011;33676;51.006;17.180;2024-01-11T02:00:24;284.70;;;158.90;;
47912;SDS011;33676;51.006;17.180;2024-01-11T02:02:52;280.70;;;141.90;;
47912;SDS011;33676;51.006;17.180;2024-01-11T02:05:24;268.10;;;144.70;;
47912;SDS011;33676;51.006;17.180;2024-01-11T02:07:53;274.30;;;144.60;;
47912;SDS011;33676;51.006;17.180;2024-01-11T02:10:22;254.00;;;142.70;;
47912;SDS011;33676;51.006;17.180;2024-01-11T02:12:52;256.10;;;133.70;;
47912;SDS011;33676;51.006;17.180;2024-01-11T02:15:20;257.90;;;135.80;;
47912;SDS011;33676;51.006;17.180;2024-01-11T02:17:49;286.00;;;166.90;;
47912;SDS011;33676;51.006;17.180;2024-01-11T02:20:18;286.80;;;165.90;;
47912;SDS011;33676;51.006;17.180;2024-01-11T02:22:47;285.60;;;160.10;;
47912;SDS011;33676;51.006;17.180;2024-01-11T02:25:21;281.90;;;156.70;;
47912;SDS011;33676;51.006;17.180;2024-01-11T02:27:50;264.90;;;155.90;;
47912;SDS011;33676;51.006;17.180;2024-01-11T02:30:19;287.10;;;162.30;;
47912;SDS011;33676;51.006;17.180;2024-01-11T02:32:48;294.90;;;167.30;;
47912;SDS011;33676;51.006;17.180;2024-01-11T02:35:19;300.30;;;169.70;;
47912;SDS011;33676;51.006;17.180;2024-01-11T02:37:48;288.90;;;169.90;;
47912;SDS011;33676;51.006;17.180;2024-01-11T02:40:17;284.30;;;157.00;;
47912;SDS011;33676;51.006;17.180;2024-01-11T02:42:47;303.70;;;165.30;;
47912;SDS011;33676;51.006;17.180;2024-01-11T02:45:16;288.70;;;161.20;;
47912;SDS011;33676;51.006;17.180;2024-01-11T02:47:44;276.20;;;155.80;;
47912;SDS011;33676;51.006;17.180;2024-01-11T02:50:13;270.30;;;153.00;;
47912;SDS011;33676;51.006;17.180;2024-01-11T02:52:41;271.80;;;150.20;;
47912;SDS011;33676;51.006;17.180;2024-01-11T02:55:10;263.20;;;153.80;;
47912;SDS011;33676;51.006;17.180;2024-01-11T02:57:38;254.40;;;149.20;;
47912;SDS011;33676;51.006;17.180;2024-01-11T03:00:07;278.20;;;148.20;;
47912;SDS011;33676;51.006;17.180;2024-01-11T03:02:37;249.50;;;144.50;;
47912;SDS011;33676;51.006;17.180;2024-01-11T03:05:07;258.20;;;145.20;;
47912;SDS011;33676;51.006;17.180;2024-01-11T03:07:36;267.00;;;145.00;;
47912;SDS011;33676;51.006;17.180;2024-01-11T03:10:05;249.60;;;148.10;;
47912;SDS011;33676;51.006;17.180;2024-01-11T03:12:33;290.50;;;156.50;;
47912;SDS011;33676;51.006;17.180;2024-01-11T03:15:03;266.50;;;153.90;;
47912;SDS011;33676;51.006;17.180;2024-01-11T03:20:49;246.20;;;141.40;;
47912;SDS011;33676;51.006;17.180;2024-01-11T03:23:18;247.00;;;139.40;;
47912;SDS011;33676;51.006;17.180;2024-01-11T03:25:46;228.10;;;117.50;;
47912;SDS011;33676;51.006;17.180;2024-01-11T03:28:15;213.70;;;113.70;;
47912;SDS011;33676;51.006;17.180;2024-01-11T03:30:43;222.60;;;112.50;;
47912;SDS011;33676;51.006;17.180;2024-01-11T03:33:12;208.20;;;113.50;;
47912;SDS011;33676;51.006;17.180;2024-01-11T03:35:41;190.60;;;100.10;;
47912;SDS011;33676;51.006;17.180;2024-01-11T03:38:12;216.60;;;115.00;;
47912;SDS011;33676;51.006;17.180;2024-01-11T03:40:40;247.30;;;136.50;;
47912;SDS011;33676;51.006;17.180;2024-01-11T03:43:34;232.60;;;129.30;;
47912;SDS011;33676;51.006;17.180;2024-01-11T03:49:20;233.20;;;127.40;;
47912;SDS011;33676;51.006;17.180;2024-01-11T03:51:48;219.20;;;127.30;;
47912;SDS011;33676;51.006;17.180;2024-01-11T03:54:17;231.90;;;130.20;;
47912;SDS011;33676;51.006;17.180;2024-01-11T03:56:45;218.40;;;128.70;;
47912;SDS011;33676;51.006;17.180;2024-01-11T03:59:14;227.10;;;121.60;;
47912;SDS011;33676;51.006;17.180;2024-01-11T04:01:42;220.70;;;125.80;;
47912;SDS011;33676;51.006;17.180;2024-01-11T04:04:11;233.10;;;125.30;;
47912;SDS011;33676;51.006;17.180;2024-01-11T04:06:40;229.80;;;126.90;;
47912;SDS011;33676;51.006;17.180;2024-01-11T04:09:09;200.60;;;115.20;;
47912;SDS011;33676;51.006;17.180;2024-01-11T04:11:37;212.30;;;123.40;;
47912;SDS011;33676;51.006;17.180;2024-01-11T04:14:06;230.40;;;126.70;;
47912;SDS011;33676;51.006;17.180;2024-01-11T04:16:40;210.70;;;121.90;;
47912;SDS011;33676;51.006;17.180;2024-01-11T04:19:09;224.20;;;123.00;;
47912;SDS011;33676;51.006;17.180;2024-01-11T04:21:38;222.30;;;124.90;;
47912;SDS011;33676;51.006;17.180;2024-01-11T04:24:07;216.10;;;122.90;;
47912;SDS011;33676;51.006;17.180;2024-01-11T04:26:35;219.50;;;127.00;;
47912;SDS011;33676;51.006;17.180;2024-01-11T04:29:05;215.30;;;119.70;;
47912;SDS011;33676;51.006;17.180;2024-01-11T04:31:33;221.90;;;123.80;;
47912;SDS011;33676;51.006;17.180;2024-01-11T04:34:19;225.70;;;126.20;;
47912;SDS011;33676;51.006;17.180;2024-01-11T04:37:06;230.80;;;123.70;;
47912;SDS011;33676;51.006;17.180;2024-01-11T04:39:36;231.60;;;125.10;;
47912;SDS011;33676;51.006;17.180;2024-01-11T04:42:35;215.40;;;107.00;;
47912;SDS011;33676;51.006;17.180;2024-01-11T04:45:05;192.50;;;104.50;;
47912;SDS011;33676;51.006;17.180;2024-01-11T04:47:33;212.70;;;101.20;;
47912;SDS011;33676;51.006;17.180;2024-01-11T04:50:02;191.60;;;100.70;;
47912;SDS011;33676;51.006;17.180;2024-01-11T04:52:32;206.40;;;104.70;;
47912;SDS011;33676;51.006;17.180;2024-01-11T04:55:01;191.30;;;101.70;;
47912;SDS011;33676;51.006;17.180;2024-01-11T04:57:30;217.90;;;114.00;;
47912;SDS011;33676;51.006;17.180;2024-01-11T04:59:59;239.50;;;141.80;;
47912;SDS011;33676;51.006;17.180;2024-01-11T05:02:31;242.00;;;136.40;;
47912;SDS011;33676;51.006;17.180;2024-01-11T05:04:59;247.60;;;147.30;;
47912;SDS011;33676;51.006;17.180;2024-01-11T05:07:28;237.10;;;137.90;;
47912;SDS011;33676;51.006;17.180;2024-01-11T05:12:54;228.20;;;126.00;;
47912;SDS011;33676;51.006;17.180;2024-01-11T05:15:22;222.30;;;118.10;;
47912;SDS011;33676;51.006;17.180;2024-01-11T05:17:51;224.00;;;115.50;;
47912;SDS011;33676;51.006;17.180;2024-01-11T05:20:19;200.70;;;113.50;;
47912;SDS011;33676;51.006;17.180;2024-01-11T05:22:48;199.70;;;110.60;;
47912;SDS011;33676;51.006;17.180;2024-01-11T05:25:16;194.90;;;112.70;;
47912;SDS011;33676;51.006;17.180;2024-01-11T05:27:45;201.80;;;108.00;;
47912;SDS011;33676;51.006;17.180;2024-01-11T05:30:13;183.00;;;104.50;;
47912;SDS011;33676;51.006;17.180;2024-01-11T05:32:43;184.30;;;101.30;;
47912;SDS011;33676;51.006;17.180;2024-01-11T05:35:11;181.40;;;101.30;;
47912;SDS011;33676;51.006;17.180;2024-01-11T05:37:40;166.90;;;94.50;;
47912;SDS011;33676;51.006;17.180;2024-01-11T05:40:09;175.80;;;101.00;;
47912;SDS011;33676;51.006;17.180;2024-01-11T05:42:38;160.30;;;97.10;;
47912;SDS011;33676;51.006;17.180;2024-01-11T05:45:11;172.70;;;97.40;;
47912;SDS011;33676;51.006;17.180;2024-01-11T05:47:45;174.20;;;95.30;;
47912;SDS011;33676;51.006;17.180;2024-01-11T05:50:13;168.20;;;91.00;;
47912;SDS011;33676;51.006;17.180;2024-01-11T05:52:43;173.70;;;94.20;;
47912;SDS011;33676;51.006;17.180;2024-01-11T05:55:11;177.90;;;90.40;;
47912;SDS011;33676;51.006;17.180;2024-01-11T05:57:39;156.40;;;88.00;;
47912;SDS011;33676;51.006;17.180;2024-01-11T06:00:08;174.90;;;90.30;;
47912;SDS011;33676;51.006;17.180;2024-01-11T06:02:37;156.40;;;88.60;;
47912;SDS011;33676;51.006;17.180;2024-01-11T06:05:09;158.30;;;87.70;;
47912;SDS011;33676;51.006;17.180;2024-01-11T06:07:38;157.30;;;91.90;;
47912;SDS011;33676;51.006;17.180;2024-01-11T06:10:07;163.20;;;90.90;;
47912;SDS011;33676;51.006;17.180;2024-01-11T06:12:37;160.60;;;85.70;;
47912;SDS011;33676;51.006;17.180;2024-01-11T06:15:06;142.40;;;82.10;;
47912;SDS011;33676;51.006;17.180;2024-01-11T06:17:35;144.60;;;81.00;;
47912;SDS011;33676;51.006;17.180;2024-01-11T06:20:23;111.20;;;64.60;;
47912;SDS011;33676;51.006;17.180;2024-01-11T06:22:52;111.10;;;60.10;;
47912;SDS011;33676;51.006;17.180;2024-01-11T06:25:20;111.00;;;63.50;;
47912;SDS011;33676;51.006;17.180;2024-01-11T06:28:10;118.00;;;64.00;;
47912;SDS011;33676;51.006;17.180;2024-01-11T06:30:42;104.40;;;59.30;;
47912;SDS011;33676;51.006;17.180;2024-01-11T06:33:12;101.80;;;57.90;;
47912;SDS011;33676;51.006;17.180;2024-01-11T06:35:40;103.30;;;56.70;;
47912;SDS011;33676;51.006;17.180;2024-01-11T06:38:09;107.90;;;59.80;;
47912;SDS011;33676;51.006;17.180;2024-01-11T06:40:38;104.50;;;62.20;;
47912;SDS011;33676;51.006;17.180;2024-01-11T06:43:06;117.10;;;64.00;;
47912;SDS011;33676;51.006;17.180;2024-01-11T06:45:35;121.40;;;70.70;;
47912;SDS011;33676;51.006;17.180;2024-01-11T06:48:04;106.90;;;60.40;;
47912;SDS011;33676;51.006;17.180;2024-01-11T06:50:35;98.30;;;52.00;;
47912;SDS011;33676;51.006;17.180;2024-01-11T06:53:03;106.30;;;54.60;;
47912;SDS011;33676;51.006;17.180;2024-01-11T06:55:32;91.10;;;52.60;;
47912;SDS011;33676;51.006;17.180;2024-01-11T06:58:01;100.20;;;51.60;;
47912;SDS011;33676;51.006;17.180;2024-01-11T07:00:30;88.90;;;47.20;;
47912;SDS011;33676;51.006;17.180;2024-01-11T07:02:59;85.50;;;47.00;;
47912;SDS011;33676;51.006;17.180;2024-01-11T07:05:27;71.10;;;36.80;;
47912;SDS011;33676;51.006;17.180;2024-01-11T07:07:57;72.60;;;39.30;;
47912;SDS011;33676;51.006;17.180;2024-01-11T07:10:26;70.80;;;35.40;;
47912;SDS011;33676;51.006;17.180;2024-01-11T07:12:54;66.40;;;36.80;;
47912;SDS011;33676;51.006;17.180;2024-01-11T07:15:23;66.90;;;33.80;;
47912;SDS011;33676;51.006;17.180;2024-01-11T07:18:08;72.70;;;39.80;;
47912;SDS011;33676;51.006;17.180;2024-01-11T07:20:39;79.60;;;44.60;;
47912;SDS011;33676;51.006;17.180;2024-01-11T07:23:08;77.50;;;42.00;;
47912;SDS011;33676;51.006;17.180;2024-01-11T07:25:47;73.90;;;41.30;;
47912;SDS011;33676;51.006;17.180;2024-01-11T07:28:47;71.60;;;43.30;;
47912;SDS011;33676;51.006;17.180;2024-01-11T07:31:16;73.50;;;39.40;;
47912;SDS011;33676;51.006;17.180;2024-01-11T07:33:45;67.40;;;40.60;;
47912;SDS011;33676;51.006;17.180;2024-01-11T07:36:14;69.50;;;36.70;;
47912;SDS011;33676;51.006;17.180;2024-01-11T07:38:42;73.10;;;38.60;;
47912;SDS011;33676;51.006;17.180;2024-01-11T07:41:11;61.90;;;35.40;;
47912;SDS011;33676;51.006;17.180;2024-01-11T07:43:41;59.30;;;36.10;;
47912;SDS011;33676;51.006;17.180;2024-01-11T07:46:44;52.80;;;31.80;;
47912;SDS011;33676;51.006;17.180;2024-01-11T07:49:42;57.80;;;29.90;;
47912;SDS011;33676;51.006;17.180;2024-01-11T07:52:11;47.80;;;28.50;;
47912;SDS011;33676;51.006;17.180;2024-01-11T07:54:40;51.20;;;31.10;;
47912;SDS011;33676;51.006;17.180;2024-01-11T07:57:43;49.10;;;31.30;;
47912;SDS011;33676;51.006;17.180;2024-01-11T08:00:12;48.80;;;28.10;;
47912;SDS011;33676;51.006;17.180;2024-01-11T08:03:11;47.90;;;30.30;;
47912;SDS011;33676;51.006;17.180;2024-01-11T08:05:41;48.20;;;28.10;;
47912;SDS011;33676;51.006;17.180;2024-01-11T08:08:35;46.30;;;27.50;;
47912;SDS011;33676;51.006;17.180;2024-01-11T08:11:16;46.50;;;27.70;;
47912;SDS011;33676;51.006;17.180;2024-01-11T08:13:44;42.40;;;23.30;;
47912;SDS011;33676;51.006;17.180;2024-01-11T08:16:16;45.70;;;23.00;;
47912;SDS011;33676;51.006;17.180;2024-01-11T08:18:46;47.20;;;26.40;;
47912;SDS011;33676;51.006;17.180;2024-01-11T08:21:17;45.10;;;25.30;;
47912;SDS011;33676;51.006;17.180;2024-01-11T08:23:47;37.50;;;24.40;;
47912;SDS011;33676;51.006;17.180;2024-01-11T08:26:17;37.40;;;20.60;;
47912;SDS011;33676;51.006;17.180;2024-01-11T08:28:50;35.40;;;21.60;;
47912;SDS011;33676;51.006;17.180;2024-01-11T08:31:18;36.50;;;20.40;;
47912;SDS011;33676;51.006;17.180;2024-01-11T08:33:47;43.30;;;24.40;;
47912;SDS011;33676;51.006;17.180;2024-01-11T08:36:16;36.20;;;22.80;;
47912;SDS011;33676;51.006;17.180;2024-01-11T08:38:44;39.50;;;22.60;;
47912;SDS011;33676;51.006;17.180;2024-01-11T08:41:13;50.90;;;24.70;;
47912;SDS011;33676;51.006;17.180;2024-01-11T08:43:41;35.90;;;21.90;;
47912;SDS011;33676;51.006;17.180;2024-01-11T08:46:10;35.70;;;19.90;;
47912;SDS011;33676;51.006;17.180;2024-01-11T08:48:39;33.90;;;19.20;;
47912;SDS011;33676;51.006;17.180;2024-01-11T08:51:07;32.00;;;18.20;;
47912;SDS011;33676;51.006;17.180;2024-01-11T08:53:37;33.70;;;18.90;;
47912;SDS011;33676;51.006;17.180;2024-01-11T08:56:06;27.90;;;17.80;;
47912;SDS011;33676;51.006;17.180;2024-01-11T08:58:34;22.60;;;16.30;;
47912;SDS011;33676;51.006;17.180;2024-01-11T09:01:04;32.60;;;19.30;;
47912;SDS011;33676;51.006;17.180;2024-01-11T09:03:32;32.20;;;20.10;;
47912;SDS011;33676;51.006;17.180;2024-01-11T09:06:04;29.30;;;18.20;;
47912;SDS011;33676;51.006;17.180;2024-01-11T09:08:33;29.50;;;18.40;;
47912;SDS011;33676;51.006;17.180;2024-01-11T09:11:02;31.70;;;19.40;;
47912;SDS011;33676;51.006;17.180;2024-01-11T09:13:31;32.00;;;19.10;;
47912;SDS011;33676;51.006;17.180;2024-01-11T09:15:59;33.80;;;20.70;;
47912;SDS011;33676;51.006;17.180;2024-01-11T09:18:28;33.50;;;18.40;;
47912;SDS011;33676;51.006;17.180;2024-01-11T09:20:57;26.00;;;16.20;;
47912;SDS011;33676;51.006;17.180;2024-01-11T09:23:26;28.50;;;16.50;;
47912;SDS011;33676;51.006;17.180;2024-01-11T09:25:54;28.70;;;16.20;;
47912;SDS011;33676;51.006;17.180;2024-01-11T09:28:23;26.60;;;17.10;;
47912;SDS011;33676;51.006;17.180;2024-01-11T09:30:51;27.70;;;16.50;;
47912;SDS011;33676;51.006;17.180;2024-01-11T09:33:20;28.20;;;15.50;;
47912;SDS011;33676;51.006;17.180;2024-01-11T09:36:01;27.40;;;17.10;;
47912;SDS011;33676;51.006;17.180;2024-01-11T09:38:31;29.40;;;16.90;;
47912;SDS011;33676;51.006;17.180;2024-01-11T09:41:06;28.60;;;18.90;;
47912;SDS011;33676;51.006;17.180;2024-01-11T09:43:42;28.60;;;19.40;;
47912;SDS011;33676;51.006;17.180;2024-01-11T09:46:11;26.10;;;17.90;;
47912;SDS011;33676;51.006;17.180;2024-01-11T09:48:42;30.70;;;19.40;;
47912;SDS011;33676;51.006;17.180;2024-01-11T09:51:12;30.50;;;18.50;;
47912;SDS011;33676;51.006;17.180;2024-01-11T09:53:43;32.70;;;22.30;;
47912;SDS011;33676;51.006;17.180;2024-01-11T09:56:13;38.50;;;23.10;;
47912;SDS011;33676;51.006;17.180;2024-01-11T09:58:47;29.40;;;19.60;;
47912;SDS011;33676;51.006;17.180;2024-01-11T10:01:18;28.30;;;19.20;;
47912;SDS011;33676;51.006;17.180;2024-01-11T10:03:47;31.60;;;20.80;;
47912;SDS011;33676;51.006;17.180;2024-01-11T10:06:16;33.30;;;23.50;;
47912;SDS011;33676;51.006;17.180;2024-01-11T10:08:46;33.10;;;21.20;;
47912;SDS011;33676;51.006;17.180;2024-01-11T10:11:15;31.70;;;19.70;;
47912;SDS011;33676;51.006;17.180;2024-01-11T10:13:44;31.70;;;19.30;;
47912;SDS011;33676;51.006;17.180;2024-01-11T10:16:13;32.30;;;18.00;;
47912;SDS011;33676;51.006;17.180;2024-01-11T10:18:43;33.30;;;20.60;;
47912;SDS011;33676;51.006;17.180;2024-01-11T10:21:12;31.70;;;20.20;;
47912;SDS011;33676;51.006;17.180;2024-01-11T10:23:42;27.40;;;18.10;;
47912;SDS011;33676;51.006;17.180;2024-01-11T10:26:12;29.40;;;18.90;;
47912;SDS011;33676;51.006;17.180;2024-01-11T10:28:45;32.50;;;19.60;;
47912;SDS011;33676;51.006;17.180;2024-01-11T10:31:16;24.60;;;18.80;;
47912;SDS011;33676;51.006;17.180;2024-01-11T10:33:46;31.70;;;20.10;;
47912;SDS011;33676;51.006;17.180;2024-01-11T10:36:16;33.80;;;17.70;;
47912;SDS011;33676;51.006;17.180;2024-01-11T10:38:47;25.80;;;16.90;;
47912;SDS011;33676;51.006;17.180;2024-01-11T10:41:18;23.00;;;17.80;;
47912;SDS011;33676;51.006;17.180;2024-01-11T10:43:48;25.70;;;15.40;;
47912;SDS011;33676;51.006;17.180;2024-01-11T10:46:19;23.90;;;14.30;;
47912;SDS011;33676;51.006;17.180;2024-01-11T10:48:54;24.50;;;15.70;;
47912;SDS011;33676;51.006;17.180;2024-01-11T10:51:24;28.30;;;16.40;;
47912;SDS011;33676;51.006;17.180;2024-01-11T10:53:56;26.00;;;17.60;;
47912;SDS011;33676;51.006;17.180;2024-01-11T10:56:27;27.10;;;18.30;;
47912;SDS011;33676;51.006;17.180;2024-01-11T10:58:57;24.20;;;17.10;;
47912;SDS011;33676;51.006;17.180;2024-01-11T11:01:27;25.00;;;15.80;;
47912;SDS011;33676;51.006;17.180;2024-01-11T11:03:56;28.50;;;18.00;;
47912;SDS011;33676;51.006;17.180;2024-01-11T11:06:26;29.50;;;19.10;;
47912;SDS011;33676;51.006;17.180;2024-01-11T11:08:56;27.00;;;18.70;;
47912;SDS011;33676;51.006;17.180;2024-01-11T11:11:26;36.90;;;21.50;;
47912;SDS011;33676;51.006;17.180;2024-01-11T11:14:00;29.40;;;18.00;;
47912;SDS011;33676;51.006;17.180;2024-01-11T11:16:29;27.30;;;16.50;;
47912;SDS011;33676;51.006;17.180;2024-01-11T11:18:57;27.60;;;18.00;;
47912;SDS011;33676;51.006;17.180;2024-01-11T11:21:27;28.00;;;17.50;;
47912;SDS011;33676;51.006;17.180;2024-01-11T11:23:56;24.90;;;16.10;;
47912;SDS011;33676;51.006;17.180;2024-01-11T11:26:25;25.20;;;16.90;;
47912;SDS011;33676;51.006;17.180;2024-01-11T11:28:55;22.80;;;15.60;;
47912;SDS011;33676;51.006;17.180;2024-01-11T11:31:46;34.70;;;20.50;;
47912;SDS011;33676;51.006;17.180;2024-01-11T11:34:40;34.20;;;19.70;;
47912;SDS011;33676;51.006;17.180;2024-01-11T11:37:11;28.40;;;17.00;;
47912;SDS011;33676;51.006;17.180;2024-01-11T11:39:41;30.10;;;18.00;;
47912;SDS011;33676;51.006;17.180;2024-01-11T11:42:10;30.00;;;22.30;;
47912;SDS011;33676;51.006;17.180;2024-01-11T11:44:48;23.50;;;16.80;;
47912;SDS011;33676;51.006;17.180;2024-01-11T11:47:22;30.90;;;20.50;;
47912;SDS011;33676;51.006;17.180;2024-01-11T11:50:06;30.10;;;18.40;;
47912;SDS011;33676;51.006;17.180;2024-01-11T11:52:38;30.00;;;17.40;;
47912;SDS011;33676;51.006;17.180;2024-01-11T11:55:08;33.40;;;24.40;;
47912;SDS011;33676;51.006;17.180;2024-01-11T11:57:38;40.80;;;21.00;;
47912;SDS011;33676;51.006;17.180;2024-01-11T12:00:07;33.30;;;18.90;;
47912;SDS011;33676;51.006;17.180;2024-01-11T12:02:37;30.90;;;19.80;;
47912;SDS011;33676;51.006;17.180;2024-01-11T12:05:05;32.40;;;21.10;;
47912;SDS011;33676;51.006;17.180;2024-01-11T12:07:34;30.80;;;19.70;;
47912;SDS011;33676;51.006;17.180;2024-01-11T12:10:04;32.30;;;21.00;;
47912;SDS011;33676;51.006;17.180;2024-01-11T12:12:35;34.10;;;20.10;;
47912;SDS011;33676;51.006;17.180;2024-01-11T12:15:05;33.20;;;21.90;;
47912;SDS011;33676;51.006;17.180;2024-01-11T12:17:34;34.90;;;22.60;;
47912;SDS011;33676;51.006;17.180;2024-01-11T12:20:03;30.10;;;19.70;;
47912;SDS011;33676;51.006;17.180;2024-01-11T12:22:32;33.30;;;19.90;;
47912;SDS011;33676;51.006;17.180;2024-01-11T12:25:01;36.60;;;21.70;;
47912;SDS011;33676;51.006;17.180;2024-01-11T12:27:31;36.50;;;21.80;;
47912;SDS011;33676;51.006;17.180;2024-01-11T12:30:00;33.00;;;21.10;;
47912;SDS011;33676;51.006;17.180;2024-01-11T12:32:29;32.70;;;19.80;;
47912;SDS011;33676;51.006;17.180;2024-01-11T12:34:58;27.20;;;18.30;;
47912;SDS011;33676;51.006;17.180;2024-01-11T12:37:30;29.10;;;19.70;;
47912;SDS011;33676;51.006;17.180;2024-01-11T12:39:59;32.90;;;21.10;;
47912;SDS011;33676;51.006;17.180;2024-01-11T12:42:29;30.60;;;21.40;;
47912;SDS011;33676;51.006;17.180;2024-01-11T12:44:58;32.30;;;22.90;;
47912;SDS011;33676;51.006;17.180;2024-01-11T12:47:27;47.80;;;29.20;;
47912;SDS011;33676;51.006;17.180;2024-01-11T12:49:56;37.90;;;23.40;;
47912;SDS011;33676;51.006;17.180;2024-01-11T12:52:25;34.50;;;24.80;;
47912;SDS011;33676;51.006;17.180;2024-01-11T12:54:56;36.90;;;22.80;;
47912;SDS011;33676;51.006;17.180;2024-01-11T12:57:28;36.10;;;25.90;;
47912;SDS011;33676;51.006;17.180;2024-01-11T13:00:14;32.90;;;23.20;;
47912;SDS011;33676;51.006;17.180;2024-01-11T13:02:44;46.20;;;26.20;;
47912;SDS011;33676;51.006;17.180;2024-01-11T13:05:15;29.40;;;19.00;;
47912;SDS011;33676;51.006;17.180;2024-01-11T13:07:44;56.30;;;28.70;;
47912;SDS011;33676;51.006;17.180;2024-01-11T13:10:12;42.00;;;25.80;;
47912;SDS011;33676;51.006;17.180;2024-01-11T13:12:43;35.70;;;23.80;;
47912;SDS011;33676;51.006;17.180;2024-01-11T13:15:20;30.30;;;21.70;;
47912;SDS011;33676;51.006;17.180;2024-01-11T13:17:49;38.20;;;24.80;;
47912;SDS011;33676;51.006;17.180;2024-01-11T13:20:18;38.00;;;22.70;;
47912;SDS011;33676;51.006;17.180;2024-01-11T13:22:53;40.10;;;24.80;;
47912;SDS011;33676;51.006;17.180;2024-01-11T13:25:39;46.30;;;29.50;;
47912;SDS011;33676;51.006;17.180;2024-01-11T13:28:09;38.50;;;23.00;;
47912;SDS011;33676;51.006;17.180;2024-01-11T13:30:40;37.10;;;22.40;;
47912;SDS011;33676;51.006;17.180;2024-01-11T13:33:10;39.10;;;24.00;;
47912;SDS011;33676;51.006;17.180;2024-01-11T13:35:41;39.40;;;26.50;;
47912;SDS011;33676;51.006;17.180;2024-01-11T13:38:13;46.80;;;26.10;;
47912;SDS011;33676;51.006;17.180;2024-01-11T13:40:42;45.60;;;26.50;;
47912;SDS011;33676;51.006;17.180;2024-01-11T13:43:11;39.40;;;26.50;;
47912;SDS011;33676;51.006;17.180;2024-01-11T13:45:40;35.70;;;25.20;;
47912;SDS011;33676;51.006;17.180;2024-01-11T13:48:08;41.20;;;26.80;;
47912;SDS011;33676;51.006;17.180;2024-01-11T13:50:36;40.70;;;25.70;;
47912;SDS011;33676;51.006;17.180;2024-01-11T13:53:05;48.50;;;26.00;;
47912;SDS011;33676;51.006;17.180;2024-01-11T13:55:34;40.00;;;23.90;;
47912;SDS011;33676;51.006;17.180;2024-01-11T13:58:07;42.50;;;26.00;;
47912;SDS011;33676;51.006;17.180;2024-01-11T14:00:36;42.70;;;26.00;;
47912;SDS011;33676;51.006;17.180;2024-01-11T14:03:06;42.30;;;28.40;;
47912;SDS011;33676;51.006;17.180;2024-01-11T14:05:37;42.30;;;25.50;;
47912;SDS011;33676;51.006;17.180;2024-01-11T14:08:07;45.00;;;27.30;;
47912;SDS011;33676;51.006;17.180;2024-01-11T14:13:05;48.00;;;24.30;;
47912;SDS011;33676;51.006;17.180;2024-01-11T14:15:33;33.30;;;20.40;;
47912;SDS011;33676;51.006;17.180;2024-01-11T14:18:06;37.10;;;22.60;;
47912;SDS011;33676;51.006;17.180;2024-01-11T14:20:39;42.80;;;29.00;;
47912;SDS011;33676;51.006;17.180;2024-01-11T14:23:08;70.00;;;44.80;;
47912;SDS011;33676;51.006;17.180;2024-01-11T14:25:36;32.80;;;21.80;;
47912;SDS011;33676;51.006;17.180;2024-01-11T14:28:05;33.00;;;21.10;;
47912;SDS011;33676;51.006;17.180;2024-01-11T14:30:34;32.60;;;19.70;;